Time;durP1;ratioP1;P1;durP2;ratioP2;P2;SDS_P1;SDS_P2;PMS_P1;PMS_P2;Temp;Humidity;BMP_temperature;BMP_pressure;BME280_temperature;BME280_humidity;BME280_pressure;Samples;Min_cycle;Max_cycle;Signal;HPM_P1;HPM_P2
2022/05/24 00:00:56;;;;;;;3.97;3.53;;;;;;;16.81;88.21;99128.34;5073305;28;20048;-77
2022/05/24 00:03:23;;;;;;;7.32;3.95;;;;;;;16.76;88.30;99135.09;5067358;28;20121;-76
2022/05/24 00:05:50;;;;;;;4.90;3.70;;;;;;;16.67;88.55;99136.78;5062783;28;20161;-74
2022/05/24 00:08:16;;;;;;;4.93;4.20;;;;;;;16.71;88.83;99140.84;5070298;28;20492;-76
2022/05/24 00:10:43;;;;;;;4.38;3.80;;;;;;;16.68;88.15;99145.66;5068021;28;20504;-74
2022/05/24 00:13:11;;;;;;;4.13;3.83;;;;;;;16.55;88.37;99124.50;5071895;28;20155;-74
2022/05/24 00:15:38;;;;;;;7.60;3.30;;;;;;;16.68;88.74;99140.31;5069660;28;20060;-76
2022/05/24 00:18:13;;;;;;;4.38;3.72;;;;;;;16.71;88.67;99140.00;5070736;28;20056;-74
2022/05/24 00:20:44;;;;;;;4.15;3.33;;;;;;;16.79;89.22;99153.53;5065958;28;20123;-76
2022/05/24 00:23:12;;;;;;;4.03;3.63;;;;;;;16.88;88.03;99152.66;5068150;28;20060;-75
2022/05/24 00:25:43;;;;;;;3.38;3.08;;;;;;;16.92;88.21;99161.25;5073227;28;20044;-75
2022/05/24 00:28:10;;;;;;;6.15;3.15;;;;;;;16.92;87.53;99155.91;5062924;28;20044;-76
2022/05/24 00:30:38;;;;;;;5.68;3.13;;;;;;;17.08;86.63;99162.34;5063214;28;20519;-75
2022/05/24 00:33:05;;;;;;;5.32;3.47;;;;;;;17.03;85.93;99142.38;5070704;28;20052;-76
2022/05/24 00:35:32;;;;;;;4.53;2.92;;;;;;;17.10;86.14;99144.34;5069628;28;20045;-77
2022/05/24 00:37:59;;;;;;;4.35;2.78;;;;;;;17.15;85.69;99144.75;5070211;28;20048;-75
2022/05/24 00:40:44;;;;;;;3.00;2.70;;;;;;;17.16;85.09;99162.47;5067558;28;20090;-73
2022/05/24 00:43:37;;;;;;;2.63;2.42;;;;;;;17.15;84.98;99163.47;5066994;28;20121;-75
2022/05/24 00:46:11;;;;;;;2.97;2.67;;;;;;;17.17;83.60;99172.19;5056744;28;20099;-74
2022/05/24 00:48:47;;;;;;;3.65;2.75;;;;;;;17.00;81.89;99164.88;5068084;28;20041;-75
2022/05/24 00:51:25;;;;;;;2.75;2.30;;;;;;;16.87;81.77;99153.63;5072086;28;20060;-71
2022/05/24 00:53:53;;;;;;;4.13;2.63;;;;;;;16.80;82.18;99160.56;5065909;28;20060;-71
2022/05/24 00:56:47;;;;;;;4.80;2.75;;;;;;;16.74;82.78;99161.97;5054305;28;20041;-76
2022/05/24 00:59:22;;;;;;;3.33;1.83;;;;;;;16.78;82.02;99154.50;5064993;28;20056;-76
2022/05/24 01:01:49;;;;;;;2.08;1.88;;;;;;;16.68;81.94;99133.13;5070822;28;20075;-74
2022/05/24 01:04:19;;;;;;;2.80;2.20;;;;;;;16.69;82.39;99137.47;5061367;28;20475;-74
2022/05/24 01:06:47;;;;;;;3.72;2.47;;;;;;;16.57;82.91;99124.34;5067318;28;20373;-75
2022/05/24 01:09:37;;;;;;;4.20;2.38;;;;;;;16.61;82.89;99150.66;5069840;28;20116;-76
2022/05/24 01:12:08;;;;;;;4.13;2.70;;;;;;;16.75;83.80;99174.34;5068102;28;20048;-74
2022/05/24 01:14:36;;;;;;;3.58;2.80;;;;;;;16.80;83.79;99169.44;5067217;28;20044;-75
2022/05/24 01:17:03;;;;;;;3.17;2.45;;;;;;;16.82;83.89;99171.97;5072743;28;20446;-75
2022/05/24 01:19:41;;;;;;;5.30;3.20;;;;;;;16.79;83.82;99167.72;5070797;28;20126;-75
2022/05/24 01:22:38;;;;;;;3.60;3.13;;;;;;;16.70;84.25;99178.41;5064037;28;20942;-76
2022/05/24 01:25:28;;;;;;;4.85;2.90;;;;;;;16.58;84.57;99176.81;5068196;28;20145;-75
2022/05/24 01:27:55;;;;;;;3.40;2.90;;;;;;;16.60;85.33;99190.91;5064485;28;20070;-76
2022/05/24 01:30:22;;;;;;;3.45;2.67;;;;;;;16.67;84.44;99184.06;5080290;28;20048;-73
2022/05/24 01:38:22;;;;;;;3.03;2.65;;;;;;;16.82;83.92;99188.84;5065375;28;20052;-75
2022/05/24 01:40:49;;;;;;;4.45;2.92;;;;;;;16.89;83.00;99178.41;5068476;28;20044;-76
2022/05/24 01:43:17;;;;;;;2.70;2.50;;;;;;;16.90;82.50;99184.59;5066727;28;20052;-76
2022/05/24 01:46:05;;;;;;;3.08;2.72;;;;;;;16.90;82.26;99177.44;5067979;28;20044;-75
2022/05/24 01:48:46;;;;;;;3.53;2.42;;;;;;;16.94;82.15;99175.31;5066266;28;20056;-76
2022/05/24 01:51:15;;;;;;;2.85;2.47;;;;;;;16.91;81.89;99167.56;5068001;28;20048;-75
2022/05/24 01:53:48;;;;;;;4.63;2.63;;;;;;;16.92;81.62;99164.78;5064186;28;20060;-73
2022/05/24 01:56:45;;;;;;;4.15;2.70;;;;;;;16.94;81.17;99178.84;5068842;28;20044;-76
2022/05/24 01:59:13;;;;;;;4.28;2.65;;;;;;;16.82;81.12;99175.47;5070118;28;20052;-71
2022/05/24 02:01:48;;;;;;;3.38;3.08;;;;;;;16.72;81.94;99168.44;5064868;28;20105;-74
2022/05/24 02:04:15;;;;;;;3.17;2.90;;;;;;;16.64;82.32;99155.78;5065964;28;20041;-74
2022/05/24 02:06:42;;;;;;;3.25;2.95;;;;;;;16.67;82.70;99149.31;5072196;28;20040;-71
2022/05/24 02:09:13;;;;;;;2.50;2.30;;;;;;;16.52;82.26;99129.31;5070436;28;20048;-75
2022/05/24 02:11:40;;;;;;;3.42;2.90;;;;;;;16.59;82.67;99155.31;5066594;28;20052;-76
2022/05/24 02:14:13;;;;;;;4.03;2.78;;;;;;;16.57;82.37;99130.56;5062201;28;20278;-76
2022/05/24 02:17:04;;;;;;;2.95;2.75;;;;;;;16.64;82.52;99149.59;5069496;28;20044;-77
2022/05/24 02:19:35;;;;;;;5.32;3.08;;;;;;;16.59;81.49;99151.78;5068647;28;20053;-74
2022/05/24 02:22:08;;;;;;;3.47;2.75;;;;;;;16.61;82.55;99147.16;5067140;28;20139;-71
2022/05/24 02:24:35;;;;;;;3.45;2.90;;;;;;;16.58;82.45;99137.59;5067415;28;20098;-74
2022/05/24 02:27:03;;;;;;;3.20;2.90;;;;;;;16.49;82.54;99133.94;5066481;28;20079;-74
2022/05/24 02:29:31;;;;;;;3.08;2.78;;;;;;;16.25;83.49;99101.41;5070055;28;20049;-73
2022/05/24 02:31:58;;;;;;;4.82;3.15;;;;;;;16.47;83.14;99127.03;5062678;28;20198;-72
2022/05/24 02:34:24;;;;;;;3.35;2.60;;;;;;;16.41;83.08;99133.78;5066381;28;20044;-74
2022/05/24 02:36:51;;;;;;;4.43;2.80;;;;;;;16.31;83.54;99116.06;5071263;28;20454;-76
2022/05/24 02:39:18;;;;;;;3.33;2.80;;;;;;;16.36;83.72;99129.84;5071073;28;20604;-72
2022/05/24 02:41:45;;;;;;;5.18;3.10;;;;;;;16.32;83.36;99123.94;5072257;28;20067;-72
2022/05/24 02:44:14;;;;;;;3.38;2.75;;;;;;;16.32;83.63;99117.75;5069869;28;20125;-71
2022/05/24 02:46:47;;;;;;;3.45;3.15;;;;;;;16.39;84.00;99130.41;5066817;28;20132;-75
2022/05/24 02:49:14;;;;;;;2.83;2.63;;;;;;;16.25;83.48;99106.75;5070152;28;20091;-75
2022/05/24 02:51:44;;;;;;;5.80;2.90;;;;;;;16.42;83.37;99140.81;5069265;28;20064;-73
2022/05/24 02:54:10;;;;;;;4.80;3.25;;;;;;;16.44;82.71;99135.34;5068577;28;20052;-76
2022/05/24 02:56:37;;;;;;;4.68;3.30;;;;;;;16.33;82.43;99114.94;5068587;28;20511;-73
2022/05/24 02:59:04;;;;;;;4.38;3.35;;;;;;;16.43;82.72;99125.63;5068084;28;20159;-74
2022/05/24 03:01:31;;;;;;;3.70;3.40;;;;;;;16.38;82.80;99133.19;5076946;28;20897;-74
2022/05/24 03:03:58;;;;;;;4.85;3.85;;;;;;;16.36;83.80;99137.88;5066261;28;20048;-75
2022/05/24 03:06:25;;;;;;;4.03;3.58;;;;;;;16.18;83.25;99100.31;5069330;28;20137;-71
2022/05/24 03:14:24;;;;;;;4.07;3.50;;;;;;;16.32;83.48;99137.28;5066643;28;20542;-74
2022/05/24 03:16:52;;;;;;;5.70;3.80;;;;;;;16.33;83.97;99147.00;5068465;28;20492;-72
2022/05/24 03:19:21;;;;;;;5.55;4.00;;;;;;;16.23;83.80;99151.47;5071172;28;20068;-72
2022/05/24 03:21:47;;;;;;;5.22;3.85;;;;;;;16.22;84.23;99155.13;5076180;28;20070;-76
2022/05/24 03:24:14;;;;;;;5.10;4.10;;;;;;;16.26;84.11;99155.69;5069461;28;20115;-74
2022/05/24 03:26:40;;;;;;;6.07;3.78;;;;;;;16.26;84.20;99140.50;5070667;28;20044;-71
2022/05/24 03:29:07;;;;;;;3.80;3.50;;;;;;;16.42;84.54;99147.97;5078077;28;20060;-75
2022/05/24 03:31:35;;;;;;;4.47;3.33;;;;;;;16.44;84.28;99141.53;5069433;28;20049;-75
2022/05/24 03:34:02;;;;;;;4.97;3.70;;;;;;;16.42;83.69;99129.28;5067033;28;20078;-75
2022/05/24 03:36:29;;;;;;;6.57;3.72;;;;;;;16.41;83.51;99120.41;5070775;28;20289;-75
2022/05/24 03:38:56;;;;;;;4.40;4.00;;;;;;;16.31;83.21;99116.06;5073373;28;20074;-73
2022/05/24 03:41:22;;;;;;;4.85;4.22;;;;;;;16.40;83.42;99132.09;5078243;28;20487;-72
2022/05/24 03:43:49;;;;;;;7.20;4.50;;;;;;;16.44;83.81;99127.31;5071586;28;21406;-75
2022/05/24 03:46:17;;;;;;;5.65;4.55;;;;;;;16.44;83.68;99120.16;5071926;28;20492;-74
2022/05/24 03:48:44;;;;;;;7.75;4.43;;;;;;;16.47;83.60;99127.88;5051776;28;20087;-74
2022/05/24 03:51:10;;;;;;;4.90;3.97;;;;;;;16.52;83.38;99124.81;5066913;28;20057;-75
2022/05/24 03:53:37;;;;;;;5.13;4.35;;;;;;;16.49;83.23;99114.38;5067954;28;20041;-75
2022/05/24 03:56:04;;;;;;;6.05;5.03;;;;;;;16.52;83.58;99123.97;5069701;28;20052;-75
2022/05/24 03:58:31;;;;;;;6.30;4.78;;;;;;;16.55;83.88;99129.00;5069255;28;20068;-75
2022/05/24 04:00:58;;;;;;;5.47;4.75;;;;;;;16.51;84.17;99128.47;5072623;28;20094;-74
2022/05/24 04:03:25;;;;;;;5.85;4.93;;;;;;;16.59;83.91;99136.59;5071920;28;20143;-71
2022/05/24 04:05:51;;;;;;;6.20;5.10;;;;;;;16.65;83.55;99138.75;5069118;28;20048;-74
2022/05/24 04:08:24;;;;;;;7.07;4.97;;;;;;;16.68;83.31;99132.28;5069093;28;20135;-75
2022/05/24 04:10:58;;;;;;;5.45;4.90;;;;;;;16.75;82.97;99141.41;5072590;28;20052;-73
2022/05/24 04:13:25;;;;;;;5.75;5.05;;;;;;;16.77;82.82;99144.78;5065467;28;20141;-75
2022/05/24 04:15:52;;;;;;;5.30;4.80;;;;;;;16.72;83.35;99129.16;5073427;28;20099;-74
2022/05/24 04:18:18;;;;;;;7.75;5.82;;;;;;;16.83;82.52;99128.19;5069659;28;20044;-74
2022/05/24 04:20:45;;;;;;;8.52;5.80;;;;;;;16.81;82.50;99138.19;5072464;28;20052;-74
2022/05/24 04:23:13;;;;;;;7.40;6.07;;;;;;;16.83;82.87;99139.75;5067489;28;20747;-72
2022/05/24 04:25:40;;;;;;;7.25;5.20;;;;;;;16.78;82.67;99135.78;5067157;28;20101;-75
2022/05/24 04:28:07;;;;;;;6.22;5.32;;;;;;;16.75;82.83;99136.06;5069277;28;20443;-75
2022/05/24 04:30:34;;;;;;;6.15;5.47;;;;;;;16.72;83.57;99142.53;5069566;28;20483;-78
2022/05/24 04:33:00;;;;;;;7.70;5.47;;;;;;;16.76;83.48;99143.94;5069195;28;20133;-74
2022/05/24 04:35:27;;;;;;;6.45;5.07;;;;;;;16.84;83.78;99149.41;5070347;28;20117;-75
2022/05/24 04:37:54;;;;;;;7.97;6.22;;;;;;;16.83;82.88;99138.91;5067971;28;20480;-75
2022/05/24 04:42:18;;;;;;;5.68;5.18;;;;;;;16.90;83.17;99145.34;5066571;28;20059;-75
2022/05/24 04:43:08;;;;;;;7.55;5.70;;;;;;;16.96;83.18;99162.66;5067183;28;20052;-75
2022/05/24 04:45:34;;;;;;;7.40;5.50;;;;;;;17.00;82.59;99156.88;5072891;28;20076;-73
2022/05/24 04:48:01;;;;;;;6.88;5.00;;;;;;;17.04;81.92;99160.94;5068857;28;20068;-74
2022/05/24 04:50:28;;;;;;;8.05;5.93;;;;;;;17.10;81.61;99162.22;5068763;28;20048;-75
2022/05/24 04:52:58;;;;;;;7.57;5.25;;;;;;;17.06;81.71;99148.28;5069519;28;20427;-76
2022/05/24 04:55:26;;;;;;;7.07;5.50;;;;;;;17.24;80.76;99169.78;5065549;28;20661;-75
2022/05/24 04:57:54;;;;;;;5.72;4.88;;;;;;;17.25;80.86;99171.47;5066506;28;20408;-75
2022/05/24 05:00:21;;;;;;;7.22;5.25;;;;;;;17.25;80.16;99176.00;5066263;28;20063;-76
2022/05/24 05:02:48;;;;;;;6.05;5.45;;;;;;;17.25;79.98;99178.66;5069083;28;20149;-75
2022/05/24 05:05:15;;;;;;;8.00;5.20;;;;;;;17.12;80.90;99157.56;5068247;28;20458;-73
2022/05/24 05:07:45;;;;;;;8.10;5.70;;;;;;;17.34;80.41;99175.09;5069184;28;20055;-74
2022/05/24 05:10:13;;;;;;;7.03;5.70;;;;;;;17.24;79.88;99150.22;5068936;28;20086;-72
2022/05/24 05:12:39;;;;;;;7.53;5.90;;;;;;;17.40;81.24;99178.06;5071648;28;20040;-75
2022/05/24 05:15:06;;;;;;;6.10;5.30;;;;;;;17.41;81.74;99181.59;5065759;28;20040;-76
2022/05/24 05:17:33;;;;;;;6.15;5.10;;;;;;;17.38;82.26;99171.16;5071338;28;20516;-74
2022/05/24 05:20:01;;;;;;;5.93;4.97;;;;;;;17.33;82.57;99187.66;5070883;28;20047;-76
2022/05/24 05:22:28;;;;;;;6.13;5.53;;;;;;;17.24;82.94;99183.16;5067945;28;20070;-76
2022/05/24 05:24:55;;;;;;;7.65;5.72;;;;;;;17.10;83.63;99181.78;5072372;28;20044;-74
2022/05/24 05:27:21;;;;;;;7.97;5.75;;;;;;;17.09;85.13;99182.78;5070202;28;20475;-73
2022/05/24 05:32:33;;;;;;;7.20;5.72;;;;;;;17.03;86.44;99191.34;5067887;28;20086;-71
2022/05/24 05:35:00;;;;;;;8.55;5.43;;;;;;;16.93;87.19;99187.00;5067141;28;20048;-73
2022/05/24 05:37:29;;;;;;;5.95;5.35;;;;;;;16.76;87.28;99172.50;5066589;28;20071;-74
2022/05/24 05:39:56;;;;;;;5.80;4.68;;;;;;;16.92;86.71;99206.69;5070210;28;20097;-73
2022/05/24 05:42:24;;;;;;;6.63;5.10;;;;;;;16.82;87.15;99188.84;5062849;28;20376;-75
2022/05/24 05:44:51;;;;;;;5.25;4.78;;;;;;;16.89;87.07;99194.47;5046215;28;20059;-75
2022/05/24 05:47:18;;;;;;;5.68;4.35;;;;;;;16.85;86.16;99185.03;5070228;28;20850;-74
2022/05/24 05:49:46;;;;;;;6.45;4.35;;;;;;;16.72;86.14;99198.66;5064051;28;20155;-76
2022/05/24 05:52:13;;;;;;;5.82;4.22;;;;;;;16.78;86.81;99199.94;5047259;28;20073;-76
2022/05/24 05:54:39;;;;;;;5.93;3.72;;;;;;;16.84;85.38;99204.75;5068106;28;20075;-75
2022/05/24 05:57:07;;;;;;;5.15;3.70;;;;;;;16.94;85.49;99213.59;5067581;28;20044;-75
2022/05/24 05:59:34;;;;;;;6.38;3.85;;;;;;;16.99;84.94;99211.38;5072825;28;20140;-76
2022/05/24 06:02:03;;;;;;;3.85;3.53;;;;;;;16.92;83.55;99202.19;5060529;28;20036;-71
2022/05/24 06:04:30;;;;;;;3.67;3.05;;;;;;;17.22;83.08;99209.22;5067510;28;20048;-74
2022/05/24 06:06:56;;;;;;;3.65;3.10;;;;;;;17.59;81.02;99208.44;5073205;28;20047;-74
2022/05/24 06:09:24;;;;;;;4.65;3.20;;;;;;;17.91;78.03;99216.13;5070267;28;20048;-75
2022/05/24 06:11:51;;;;;;;4.60;2.50;;;;;;;17.91;77.18;99216.97;5069481;28;20052;-77
2022/05/24 06:14:17;;;;;;;5.60;2.55;;;;;;;18.04;77.23;99222.81;5065684;28;20078;-76
2022/05/24 06:17:04;;;;;;;4.53;2.50;;;;;;;18.06;75.91;99228.88;5063727;28;20891;-72
2022/05/24 06:19:31;;;;;;;2.88;2.10;;;;;;;17.66;77.00;99234.50;5068618;28;20044;-74
2022/05/24 06:21:58;;;;;;;6.85;2.33;;;;;;;17.34;79.05;99228.63;5070701;28;20418;-75
2022/05/24 06:24:24;;;;;;;5.07;2.30;;;;;;;16.86;83.88;99266.94;5066518;28;20041;-72
2022/05/24 06:26:51;;;;;;;5.50;2.80;;;;;;;16.36;88.21;99274.97;5070412;28;20094;-77
2022/05/24 06:29:18;;;;;;;3.55;3.10;;;;;;;15.90;92.24;99270.13;5067694;28;20049;-74
2022/05/24 06:31:45;;;;;;;4.25;2.75;;;;;;;15.59;95.85;99290.59;5070546;28;20418;-74
2022/05/24 06:34:12;;;;;;;3.92;1.73;;;;;;;15.23;95.75;99289.19;5065287;28;20148;-71
2022/05/24 06:36:39;;;;;;;3.38;1.98;;;;;;;15.13;97.00;99280.25;5067176;28;20040;-75
2022/05/24 06:39:08;;;;;;;2.25;1.60;;;;;;;15.10;96.12;99277.88;5071923;28;20044;-72
2022/05/24 06:41:34;;;;;;;3.40;1.83;;;;;;;15.15;97.37;99286.31;5070799;28;20135;-74
2022/05/24 06:44:01;;;;;;;3.38;1.50;;;;;;;15.20;95.37;99286.78;5073798;28;20041;-71
2022/05/24 06:46:28;;;;;;;2.35;1.88;;;;;;;15.23;95.36;99270.53;5065471;28;20056;-75
2022/05/24 06:48:55;;;;;;;2.67;1.48;;;;;;;15.39;95.04;99284.25;5066860;28;20403;-73
2022/05/24 06:51:23;;;;;;;2.63;1.80;;;;;;;15.60;96.07;99280.75;5076265;28;20048;-78
2022/05/24 06:53:52;;;;;;;;;;;;;;;15.88;94.66;99311.28;5061032;28;20137;-76
2022/05/24 06:56:18;;;;;;;2.35;1.85;;;;;;;15.98;92.45;99317.53;5062173;28;19924;-76
2022/05/24 06:58:45;;;;;;;2.50;1.50;;;;;;;15.99;90.64;99329.91;5070250;28;20135;-77
2022/05/24 07:03:58;;;;;;;3.67;1.60;;;;;;;15.83;87.70;99337.53;5065748;28;20059;-74
2022/05/24 07:06:26;;;;;;;2.67;1.40;;;;;;;15.88;88.96;99354.00;5066717;28;20060;-75
2022/05/24 07:08:53;;;;;;;2.05;1.48;;;;;;;15.73;89.09;99342.81;5062393;28;20149;-70
2022/05/24 07:11:21;;;;;;;2.10;1.38;;;;;;;15.77;88.21;99374.44;5039640;28;20056;-72
2022/05/24 07:13:54;;;;;;;3.00;1.50;;;;;;;15.88;89.03;99380.72;5065694;28;20126;-74
2022/05/24 07:16:21;;;;;;;1.30;1.20;;;;;;;15.98;88.56;99377.13;5033930;28;20130;-77
2022/05/24 07:18:49;;;;;;;1.92;1.27;;;;;;;16.19;84.63;99389.63;5072413;28;20045;-75
2022/05/24 07:21:16;;;;;;;4.20;1.10;;;;;;;16.42;83.93;99400.00;5060088;28;20139;-74
2022/05/24 07:23:43;;;;;;;1.80;1.52;;;;;;;16.57;83.08;99400.47;5077414;28;20048;-73
2022/05/24 07:26:15;;;;;;;3.33;1.50;;;;;;;16.82;83.99;99393.88;5068480;28;20174;-71
2022/05/24 07:29:03;;;;;;;3.03;1.58;;;;;;;16.92;80.95;99400.09;5065059;28;20439;-75
2022/05/24 07:31:30;;;;;;;1.42;1.33;;;;;;;16.88;82.07;99398.66;5069886;28;20097;-75
2022/05/24 07:33:59;;;;;;;1.65;1.30;;;;;;;16.83;82.97;99388.41;5068775;28;20044;-76
2022/05/24 07:36:27;;;;;;;2.50;1.50;;;;;;;16.94;83.63;99403.47;5068463;28;20461;-73
2022/05/24 07:38:54;;;;;;;4.05;1.20;;;;;;;17.03;81.75;99397.28;5068108;28;20056;-75
2022/05/24 07:46:51;;;;;;;2.63;1.33;;;;;;;16.61;81.34;99404.59;5067176;28;20044;-73
2022/05/24 07:49:18;;;;;;;1.10;0.80;;;;;;;16.83;79.45;99417.81;5071694;28;20052;-74
2022/05/24 07:51:45;;;;;;;0.80;0.80;;;;;;;16.93;78.31;99420.50;5067832;28;20478;-73
2022/05/24 07:54:11;;;;;;;1.58;0.85;;;;;;;17.11;76.60;99434.06;5066908;28;20071;-72
2022/05/24 07:56:38;;;;;;;1.10;0.75;;;;;;;17.22;76.29;99433.94;5050409;28;20436;-75
2022/05/24 07:59:05;;;;;;;2.47;0.90;;;;;;;17.20;75.54;99446.59;5070557;28;20052;-76
2022/05/24 08:01:33;;;;;;;2.90;0.75;;;;;;;17.52;76.45;99454.41;5068467;28;20056;-76
2022/05/24 08:03:59;;;;;;;1.95;0.73;;;;;;;17.73;73.92;99454.34;5074232;28;20465;-73
2022/05/24 08:06:26;;;;;;;1.98;1.08;;;;;;;18.13;72.75;99451.50;5067998;28;20076;-75
2022/05/24 08:08:53;;;;;;;0.93;0.82;;;;;;;18.43;68.71;99453.97;5068632;28;20051;-75
2022/05/24 08:11:20;;;;;;;0.68;0.60;;;;;;;18.29;66.86;99451.75;5069096;28;20128;-75
2022/05/24 08:13:46;;;;;;;0.77;0.55;;;;;;;18.13;68.22;99457.69;5071552;28;20137;-74
2022/05/24 08:16:13;;;;;;;0.70;0.70;;;;;;;17.82;69.68;99454.34;5069278;28;20105;-76
2022/05/24 08:18:40;;;;;;;2.65;0.90;;;;;;;17.90;71.01;99466.19;5069467;28;20083;-76
2022/05/24 08:21:07;;;;;;;2.28;0.80;;;;;;;18.04;68.27;99474.66;5073273;28;20052;-75
2022/05/24 08:23:34;;;;;;;0.70;0.70;;;;;;;17.98;69.49;99479.72;5067376;28;20287;-75
2022/05/24 08:26:00;;;;;;;0.95;0.70;;;;;;;18.19;67.76;99473.22;5067484;28;20044;-74
2022/05/24 08:28:28;;;;;;;0.98;0.52;;;;;;;18.15;65.69;99434.28;5068113;28;20480;-74
2022/05/24 08:30:54;;;;;;;1.95;0.50;;;;;;;18.41;66.20;99482.78;5066097;28;20056;-75
2022/05/24 08:33:23;;;;;;;2.03;0.77;;;;;;;18.21;67.13;99486.47;5067981;28;20059;-76
2022/05/24 08:35:51;;;;;;;1.65;0.57;;;;;;;18.09;67.71;99483.13;5076444;28;20059;-74
2022/05/24 08:38:19;;;;;;;1.60;0.57;;;;;;;18.13;68.80;99489.00;5072635;28;20064;-73
2022/05/24 08:40:48;;;;;;;1.27;0.57;;;;;;;18.11;66.83;99485.63;5072196;28;22294;-75
2022/05/24 08:43:26;;;;;;;0.52;0.50;;;;;;;18.15;68.71;99490.56;5079755;28;20093;-70
2022/05/24 08:48:55;;;;;;;2.15;0.93;;;;;;;17.87;68.31;99484.22;5066755;28;20507;-74
2022/05/24 08:51:27;;;;;;;3.67;0.70;;;;;;;17.74;68.16;99493.53;5069681;28;20040;-73
2022/05/24 08:53:57;;;;;;;5.82;0.60;;;;;;;17.63;70.77;99491.75;5079746;28;20456;-76
2022/05/24 08:56:29;;;;;;;1.63;0.70;;;;;;;17.59;67.04;99498.41;5074543;28;21044;-77
2022/05/24 08:59:02;;;;;;;0.30;0.30;;;;;;;17.58;65.69;99498.53;5068567;28;20048;-75
2022/05/24 09:01:32;;;;;;;1.58;0.50;;;;;;;17.55;64.74;99499.66;5072247;28;20117;-75
2022/05/24 09:04:06;;;;;;;0.52;0.40;;;;;;;17.64;63.87;99492.66;5076957;28;20055;-74
2022/05/24 09:07:04;;;;;;;1.02;0.47;;;;;;;17.48;63.60;99495.81;5067455;28;20049;-75
2022/05/24 09:09:54;;;;;;;5.05;0.90;;;;;;;17.41;63.08;99502.72;5072956;28;20079;-75
2022/05/24 09:12:52;;;;;;;2.45;0.50;;;;;;;17.16;64.26;99507.56;5047664;28;20275;-76
2022/05/24 09:15:35;;;;;;;1.80;0.57;;;;;;;17.00;64.57;99495.69;5076878;28;20052;-76
2022/05/24 09:18:39;;;;;;;0.98;0.50;;;;;;;17.07;65.93;99505.72;5063607;28;20131;-73
2022/05/24 09:21:13;;;;;;;4.30;0.60;;;;;;;17.23;65.48;99496.34;5058647;28;20068;-74
2022/05/24 09:23:50;;;;;;;1.15;0.50;;;;;;;17.45;63.89;99496.97;5069010;28;20079;-73
2022/05/24 09:26:24;;;;;;;1.10;0.50;;;;;;;17.69;63.63;99495.75;5072044;28;20068;-75
2022/05/24 09:29:08;;;;;;;2.65;0.57;;;;;;;17.92;62.71;99504.41;5077202;28;20123;-74
2022/05/24 09:31:46;;;;;;;1.05;0.40;;;;;;;18.19;60.91;99501.84;5067552;28;20044;-73
2022/05/24 09:34:18;;;;;;;0.75;0.50;;;;;;;18.19;61.48;99501.84;5071063;28;20048;-72
2022/05/24 09:36:59;;;;;;;1.33;0.40;;;;;;;17.80;59.59;99515.22;5064467;28;20378;-73
2022/05/24 09:39:32;;;;;;;3.90;0.50;;;;;;;17.76;60.56;99502.28;5071840;28;20132;-76
2022/05/24 09:42:01;;;;;;;1.98;0.30;;;;;;;17.74;60.31;99507.75;5069492;28;20071;-75
2022/05/24 09:44:41;;;;;;;0.88;0.50;;;;;;;17.83;60.29;99508.75;5077704;28;20036;-71
2022/05/24 09:47:37;;;;;;;1.55;0.50;;;;;;;18.15;59.08;99509.31;5077643;28;20044;-77
2022/05/24 09:50:22;;;;;;;0.63;0.30;;;;;;;18.29;56.44;99494.63;5070240;28;20044;-75
2022/05/24 09:53:26;;;;;;;1.63;0.70;;;;;;;18.20;55.74;99511.59;5079317;28;20090;-77
2022/05/24 09:55:59;;;;;;;0.70;0.43;;;;;;;18.03;57.19;99509.59;5080790;28;20058;-75
2022/05/24 09:58:49;;;;;;;1.75;0.50;;;;;;;18.05;56.27;99518.34;5070753;28;20045;-76
2022/05/24 10:01:37;;;;;;;0.40;0.40;;;;;;;18.01;56.84;99527.66;5067604;28;20128;-74
2022/05/24 10:04:16;;;;;;;1.30;0.47;;;;;;;18.19;57.41;99499.16;5067273;28;20052;-73
2022/05/24 10:06:51;;;;;;;2.78;0.47;;;;;;;18.60;54.10;99515.91;5068513;28;20702;-75
2022/05/24 10:09:29;;;;;;;1.05;0.57;;;;;;;18.78;52.44;99516.88;5072855;28;20142;-76
2022/05/24 10:12:19;;;;;;;2.53;0.93;;;;;;;19.14;53.12;99528.63;5064702;28;20129;-75
2022/05/24 10:14:55;;;;;;;0.95;0.77;;;;;;;19.43;50.90;99517.75;5058922;28;20134;-76
2022/05/24 10:17:46;;;;;;;0.98;0.65;;;;;;;19.62;48.12;99528.41;5075480;28;20066;-75
2022/05/24 10:20:28;;;;;;;0.68;0.55;;;;;;;19.81;48.35;99530.97;5069553;28;20079;-74
2022/05/24 10:23:02;;;;;;;2.00;0.45;;;;;;;20.14;47.87;99534.84;5065904;28;20048;-76
2022/05/24 10:25:56;;;;;;;1.35;0.40;;;;;;;20.35;46.84;99539.03;5066868;28;20070;-76
2022/05/24 10:28:31;;;;;;;2.35;0.50;;;;;;;19.95;48.87;99545.72;5048669;28;20094;-77
2022/05/24 10:31:16;;;;;;;1.08;0.40;;;;;;;19.38;52.21;99541.50;5067656;28;20055;-76
2022/05/24 10:40:34;;;;;;;4.20;0.80;;;;;;;19.11;52.80;99543.19;5068915;28;20047;-75
2022/05/24 10:43:43;;;;;;;1.23;0.55;;;;;;;18.67;52.16;99484.88;5020189;28;20150;-76
2022/05/24 10:46:16;;;;;;;0.57;0.55;;;;;;;18.99;51.60;99519.34;5062481;28;20056;-75
2022/05/24 10:49:10;;;;;;;1.55;0.60;;;;;;;19.01;51.31;99553.09;5068109;28;20058;-77
2022/05/24 10:51:48;;;;;;;4.65;0.60;;;;;;;19.08;49.99;99559.56;5064682;28;20060;-76
2022/05/24 10:54:35;;;;;;;1.20;0.60;;;;;;;19.05;49.82;99556.31;5069868;28;20071;-75
2022/05/24 10:57:12;;;;;;;0.50;0.40;;;;;;;19.25;49.95;99572.22;5070577;28;20102;-76
2022/05/24 10:59:57;;;;;;;1.65;0.68;;;;;;;19.35;48.52;99568.66;5067144;28;20056;-77
2022/05/24 11:02:23;;;;;;;2.90;0.68;;;;;;;19.60;47.25;99570.69;5070308;28;20101;-74
2022/05/24 11:04:59;;;;;;;0.50;0.35;;;;;;;19.72;46.66;99572.16;5076573;28;20155;-74
2022/05/24 11:07:30;;;;;;;2.17;0.63;;;;;;;19.72;46.87;99568.63;5065946;28;20075;-75
2022/05/24 11:10:06;;;;;;;1.33;0.50;;;;;;;19.78;46.94;99565.34;5072491;28;20127;-76
2022/05/24 11:12:40;;;;;;;3.05;0.50;;;;;;;20.03;46.14;99564.59;5070270;28;20044;-75
2022/05/24 11:15:17;;;;;;;2.47;0.50;;;;;;;20.33;44.45;99569.59;5068684;28;20389;-75
2022/05/24 11:17:45;;;;;;;1.30;0.38;;;;;;;20.64;44.23;99570.06;5078978;28;20109;-75
2022/05/24 11:20:13;;;;;;;1.00;0.75;;;;;;;20.66;44.57;99561.84;5072412;28;20060;-69
2022/05/24 11:22:53;;;;;;;3.55;0.70;;;;;;;20.45;45.24;99556.81;5072337;28;20051;-74
2022/05/24 11:25:28;;;;;;;1.95;0.60;;;;;;;20.27;45.79;99570.25;5072118;28;20071;-76
2022/05/24 11:28:19;;;;;;;1.02;0.50;;;;;;;20.14;43.84;99582.38;5071774;28;20099;-76
2022/05/24 11:30:49;;;;;;;0.93;0.60;;;;;;;20.26;43.45;99576.63;5067993;28;20151;-76
2022/05/24 11:33:39;;;;;;;2.63;0.50;;;;;;;20.57;43.80;99577.09;5073419;28;20110;-74
2022/05/24 11:36:44;;;;;;;0.95;0.60;;;;;;;20.69;43.02;99583.06;5075937;28;20131;-74
2022/05/24 11:39:28;;;;;;;5.50;0.60;;;;;;;20.38;43.36;99569.19;5068835;28;20131;-75
2022/05/24 11:42:19;;;;;;;2.10;0.50;;;;;;;20.37;43.77;99572.88;5061330;28;20052;-76
2022/05/24 11:44:46;;;;;;;1.77;0.45;;;;;;;20.06;45.41;99577.75;5075090;28;20129;-76
2022/05/24 11:47:42;;;;;;;2.42;0.55;;;;;;;19.54;45.54;99576.63;5069575;28;20052;-77
2022/05/24 11:50:30;;;;;;;4.00;0.77;;;;;;;19.43;46.27;99580.34;5036939;28;20516;-71
2022/05/24 11:53:05;;;;;;;3.05;0.68;;;;;;;19.44;46.72;99587.41;5076511;28;20121;-74
2022/05/24 11:56:10;;;;;;;1.70;0.60;;;;;;;19.36;46.99;99568.50;5078159;28;20044;-75
2022/05/24 11:58:37;;;;;;;1.52;0.47;;;;;;;19.78;45.45;99581.47;5080913;28;20037;-74
2022/05/24 12:01:09;;;;;;;1.55;0.65;;;;;;;19.91;44.71;99572.06;5071614;28;20063;-78
2022/05/24 12:10:11;;;;;;;1.75;0.60;;;;;;;19.80;43.84;99574.97;5066702;28;20078;-77
2022/05/24 12:12:51;;;;;;;1.40;0.50;;;;;;;19.93;44.99;99580.81;5077369;28;20045;-79
2022/05/24 12:15:25;;;;;;;2.38;0.77;;;;;;;20.20;44.70;99592.50;5068310;28;20044;-77
2022/05/24 12:18:15;;;;;;;1.17;0.40;;;;;;;20.36;43.17;99590.00;5068298;28;20789;-74
2022/05/24 12:20:42;;;;;;;1.38;0.60;;;;;;;20.52;43.59;99587.47;5068390;28;20055;-75
2022/05/24 12:23:14;;;;;;;0.70;0.47;;;;;;;20.92;42.98;99599.56;5072341;28;20055;-78
2022/05/24 12:25:59;;;;;;;2.55;0.90;;;;;;;20.85;42.85;99598.50;5074458;28;20484;-75
2022/05/24 12:28:35;;;;;;;7.30;1.27;;;;;;;21.04;42.09;99598.28;5071132;28;20114;-74
2022/05/24 12:31:22;;;;;;;2.65;1.25;;;;;;;20.95;41.83;99601.91;5070170;28;20055;-74
2022/05/24 12:34:04;;;;;;;1.48;0.60;;;;;;;20.37;42.28;99605.13;5066389;28;20068;-77
2022/05/24 12:36:46;;;;;;;2.65;0.70;;;;;;;20.10;42.65;99618.63;5067117;28;20049;-78